sensor_id;sensor_type;location;lat;lon;timestamp;pressure;altitude;pressure_sealevel;temperature;humidity
36354;BME280;22383;51.114;13.666;2022-12-18T00:01:29;66276.34;;;-8.41;100.00
36354;BME280;22383;51.114;13.666;2022-12-18T00:03:57;66286.47;;;-8.37;100.00
36354;BME280;22383;51.114;13.666;2022-12-18T00:06:27;66237.75;;;-8.37;100.00
36354;BME280;22383;51.114;13.666;2022-12-18T00:08:57;66238.88;;;-8.36;100.00
36354;BME280;22383;51.114;13.666;2022-12-18T00:11:27;66300.09;;;-8.22;100.00
36354;BME280;22383;51.114;13.666;2022-12-18T00:13:57;66300.88;;;-8.19;100.00
36354;BME280;22383;51.114;13.666;2022-12-18T00:16:25;66298.44;;;-8.23;100.00
36354;BME280;22383;51.114;13.666;2022-12-18T00:18:55;66288.94;;;-8.32;100.00
36354;BME280;22383;51.114;13.666;2022-12-18T00:21:22;66280.56;;;-8.40;100.00
36354;BME280;22383;51.114;13.666;2022-12-18T00:23:50;66265.22;;;-8.51;100.00
36354;BME280;22383;51.114;13.666;2022-12-18T00:26:20;66210.47;;;-8.62;100.00
36354;BME280;22383;51.114;13.666;2022-12-18T00:28:49;66203.78;;;-8.68;100.00
36354;BME280;22383;51.114;13.666;2022-12-18T00:31:18;66249.38;;;-8.68;100.00
36354;BME280;22383;51.114;13.666;2022-12-18T00:33:46;66252.72;;;-8.65;100.00
36354;BME280;22383;51.114;13.666;2022-12-18T00:36:20;66252.38;;;-8.63;100.00
36354;BME280;22383;51.114;13.666;2022-12-18T00:38:48;66259.97;;;-8.59;100.00
36354;BME280;22383;51.114;13.666;2022-12-18T00:41:18;66260.28;;;-8.61;100.00
36354;BME280;22383;51.114;13.666;2022-12-18T00:44:07;66264.44;;;-8.54;100.00
36354;BME280;22383;51.114;13.666;2022-12-18T00:46:34;66267.78;;;-8.51;100.00
36354;BME280;22383;51.114;13.666;2022-12-18T00:49:02;66260.75;;;-8.56;100.00
36354;BME280;22383;51.114;13.666;2022-12-18T00:51:30;66257.28;;;-8.54;100.00
36354;BME280;22383;51.114;13.666;2022-12-18T00:53:58;66261.31;;;-8.55;100.00
36354;BME280;22383;51.114;13.666;2022-12-18T00:56:25;66276.69;;;-8.43;100.00
36354;BME280;22383;51.114;13.666;2022-12-18T00:58:53;66276.13;;;-8.44;100.00
36354;BME280;22383;51.114;13.666;2022-12-18T01:01:20;66265.75;;;-8.51;100.00
36354;BME280;22383;51.114;13.666;2022-12-18T01:03:48;66251.59;;;-8.66;100.00
36354;BME280;22383;51.114;13.666;2022-12-18T01:06:16;66236.78;;;-8.78;100.00
36354;BME280;22383;51.114;13.666;2022-12-18T01:08:44;66258.50;;;-8.58;100.00
36354;BME280;22383;51.114;13.666;2022-12-18T01:11:17;66277.81;;;-8.42;100.00
36354;BME280;22383;51.114;13.666;2022-12-18T01:13:45;66269.66;;;-8.47;100.00
36354;BME280;22383;51.114;13.666;2022-12-18T01:16:14;66263.88;;;-8.55;100.00
36354;BME280;22383;51.114;13.666;2022-12-18T01:18:42;66253.28;;;-8.65;100.00
36354;BME280;22383;51.114;13.666;2022-12-18T01:21:16;66195.41;;;-8.76;100.00
36354;BME280;22383;51.114;13.666;2022-12-18T01:23:44;66232.09;;;-8.84;100.00
36354;BME280;22383;51.114;13.666;2022-12-18T01:26:15;66227.06;;;-8.89;100.00
36354;BME280;22383;51.114;13.666;2022-12-18T01:28:43;66215.38;;;-9.00;100.00
36354;BME280;22383;51.114;13.666;2022-12-18T01:31:25;66204.78;;;-9.09;100.00
36354;BME280;22383;51.114;13.666;2022-12-18T01:33:54;66193.09;;;-9.20;100.00
36354;BME280;22383;51.114;13.666;2022-12-18T01:36:25;66184.72;;;-9.28;100.00
36354;BME280;22383;51.114;13.666;2022-12-18T01:38:54;66183.38;;;-9.32;100.00
36354;BME280;22383;51.114;13.666;2022-12-18T01:41:25;66127.47;;;-9.38;100.00
36354;BME280;22383;51.114;13.666;2022-12-18T01:43:57;66177.47;;;-9.35;100.00
36354;BME280;22383;51.114;13.666;2022-12-18T01:46:25;66179.16;;;-9.33;100.00
36354;BME280;22383;51.114;13.666;2022-12-18T01:48:57;66173.25;;;-9.36;100.00
36354;BME280;22383;51.114;13.666;2022-12-18T01:51:29;66166.56;;;-9.42;100.00
36354;BME280;22383;51.114;13.666;2022-12-18T01:53:58;66118.00;;;-9.47;100.00
36354;BME280;22383;51.114;13.666;2022-12-18T01:56:26;66111.69;;;-9.55;100.00
36354;BME280;22383;51.114;13.666;2022-12-18T01:59:05;66160.22;;;-9.51;100.00
36354;BME280;22383;51.114;13.666;2022-12-18T02:01:36;66157.44;;;-9.53;100.00
36354;BME280;22383;51.114;13.666;2022-12-18T02:04:26;66162.44;;;-9.48;100.00
36354;BME280;22383;51.114;13.666;2022-12-18T02:07:10;66153.53;;;-9.57;100.00
36354;BME280;22383;51.114;13.666;2022-12-18T02:12:42;66144.97;;;-9.67;100.00
36354;BME280;22383;51.114;13.666;2022-12-18T02:15:21;66139.84;;;-9.67;100.00
36354;BME280;22383;51.114;13.666;2022-12-18T02:18:06;66136.81;;;-9.72;100.00
36354;BME280;22383;51.114;13.666;2022-12-18T02:20:56;66128.16;;;-9.78;100.00
36354;BME280;22383;51.114;13.666;2022-12-18T02:23:56;66120.91;;;-9.84;100.00
36354;BME280;22383;51.114;13.666;2022-12-18T02:26:36;66121.25;;;-9.86;100.00
36354;BME280;22383;51.114;13.666;2022-12-18T02:29:15;66073.50;;;-9.88;100.00
36354;BME280;22383;51.114;13.666;2022-12-18T02:31:51;66124.56;;;-9.83;100.00
36354;BME280;22383;51.114;13.666;2022-12-18T02:34:22;66125.69;;;-9.82;100.00
36354;BME280;22383;51.114;13.666;2022-12-18T02:36:53;66118.44;;;-9.89;100.00
36354;BME280;22383;51.114;13.666;2022-12-18T02:39:23;66110.09;;;-9.97;100.00
36354;BME280;22383;51.114;13.666;2022-12-18T02:42:03;66094.97;;;-10.06;100.00
36354;BME280;22383;51.114;13.666;2022-12-18T02:44:45;66095.94;;;-10.12;100.00
36354;BME280;22383;51.114;13.666;2022-12-18T02:47:19;66087.28;;;-10.18;100.00
36354;BME280;22383;51.114;13.666;2022-12-18T02:50:18;66097.28;;;-10.09;100.00
36354;BME280;22383;51.114;13.666;2022-12-18T02:53:14;66092.97;;;-9.70;100.00
36354;BME280;22383;51.114;13.666;2022-12-18T03:01:52;66212.59;;;-9.02;100.00
36354;BME280;22383;51.114;13.666;2022-12-18T03:04:49;66205.34;;;-9.09;100.00
36354;BME280;22383;51.114;13.666;2022-12-18T03:07:26;66195.88;;;-9.18;100.00
36354;BME280;22383;51.114;13.666;2022-12-18T03:09:58;66189.97;;;-9.21;100.00
36354;BME280;22383;51.114;13.666;2022-12-18T03:12:35;66133.06;;;-9.33;100.00
36354;BME280;22383;51.114;13.666;2022-12-18T03:15:25;66173.03;;;-9.39;100.00
36354;BME280;22383;51.114;13.666;2022-12-18T03:18:08;66164.34;;;-9.44;100.00
36354;BME280;22383;51.114;13.666;2022-12-18T03:20:39;66157.09;;;-9.51;100.00
36354;BME280;22383;51.114;13.666;2022-12-18T03:23:14;66108.00;;;-9.56;100.00
36354;BME280;22383;51.114;13.666;2022-12-18T03:25:48;66153.88;;;-9.59;100.00
36354;BME280;22383;51.114;13.666;2022-12-18T03:28:21;66142.41;;;-9.67;100.00
36354;BME280;22383;51.114;13.666;2022-12-18T03:30:57;66099.97;;;-9.66;100.00
36354;BME280;22383;51.114;13.666;2022-12-18T03:33:29;66094.66;;;-9.68;100.00
36354;BME280;22383;51.114;13.666;2022-12-18T03:35:59;66135.38;;;-9.71;100.00
36354;BME280;22383;51.114;13.666;2022-12-18T03:38:27;66136.72;;;-9.67;100.00
36354;BME280;22383;51.114;13.666;2022-12-18T03:41:10;66153.53;;;-9.57;100.00
36354;BME280;22383;51.114;13.666;2022-12-18T03:44:14;66153.75;;;-9.54;100.00
36354;BME280;22383;51.114;13.666;2022-12-18T03:47:01;66149.94;;;-9.62;100.00
36354;BME280;22383;51.114;13.666;2022-12-18T03:49:38;66145.16;;;-9.64;100.00
36354;BME280;22383;51.114;13.666;2022-12-18T03:52:19;66148.31;;;-9.64;100.00
36354;BME280;22383;51.114;13.666;2022-12-18T03:54:50;66148.53;;;-9.61;100.00
36354;BME280;22383;51.114;13.666;2022-12-18T03:57:24;66155.22;;;-9.55;100.00
36354;BME280;22383;51.114;13.666;2022-12-18T04:00:05;66163.00;;;-9.48;100.00
36354;BME280;22383;51.114;13.666;2022-12-18T04:02:44;66116.91;;;-9.48;100.00
36354;BME280;22383;51.114;13.666;2022-12-18T04:05:19;66162.44;;;-9.48;100.00
36354;BME280;22383;51.114;13.666;2022-12-18T04:07:49;66162.66;;;-9.46;100.00
36354;BME280;22383;51.114;13.666;2022-12-18T04:10:18;66175.25;;;-9.37;100.00
36354;BME280;22383;51.114;13.666;2022-12-18T04:12:46;66174.69;;;-9.37;100.00
36354;BME280;22383;51.114;13.666;2022-12-18T04:15:15;66172.78;;;-9.41;100.00
36354;BME280;22383;51.114;13.666;2022-12-18T04:17:47;66175.81;;;-9.36;100.00
36354;BME280;22383;51.114;13.666;2022-12-18T04:20:18;66169.13;;;-9.42;100.00
36354;BME280;22383;51.114;13.666;2022-12-18T04:22:46;66173.59;;;-9.38;100.00
36354;BME280;22383;51.114;13.666;2022-12-18T04:25:14;66173.03;;;-9.39;100.00
36354;BME280;22383;51.114;13.666;2022-12-18T04:27:53;66164.00;;;-9.42;100.00
36354;BME280;22383;51.114;13.666;2022-12-18T04:30:20;66111.34;;;-9.53;100.00
36354;BME280;22383;51.114;13.666;2022-12-18T04:32:48;66150.53;;;-9.62;100.00
36354;BME280;22383;51.114;13.666;2022-12-18T04:35:19;66090.19;;;-9.73;100.00
36354;BME280;22383;51.114;13.666;2022-12-18T04:37:47;66128.16;;;-9.78;100.00
36354;BME280;22383;51.114;13.666;2022-12-18T04:40:15;66082.97;;;-9.79;100.00
36354;BME280;22383;51.114;13.666;2022-12-18T04:42:45;66126.56;;;-9.84;100.00
36354;BME280;22383;51.114;13.666;2022-12-18T04:45:13;66075.94;;;-9.83;100.00
36354;BME280;22383;51.114;13.666;2022-12-18T04:47:40;66075.38;;;-9.84;100.00
36354;BME280;22383;51.114;13.666;2022-12-18T04:50:07;66117.56;;;-9.88;100.00
36354;BME280;22383;51.114;13.666;2022-12-18T04:52:36;66110.88;;;-9.94;100.00
36354;BME280;22383;51.114;13.666;2022-12-18T04:55:03;66107.88;;;-9.99;100.00
36354;BME280;22383;51.114;13.666;2022-12-18T04:57:30;66055.13;;;-10.05;100.00
36354;BME280;22383;51.114;13.666;2022-12-18T04:59:58;66095.63;;;-10.10;100.00
36354;BME280;22383;51.114;13.666;2022-12-18T05:02:25;66085.59;;;-10.19;100.00
36354;BME280;22383;51.114;13.666;2022-12-18T05:04:52;66034.00;;;-10.24;100.00
36354;BME280;22383;51.114;13.666;2022-12-18T05:07:20;66073.16;;;-10.33;100.00
36354;BME280;22383;51.114;13.666;2022-12-18T05:09:47;66067.81;;;-10.36;100.00
36354;BME280;22383;51.114;13.666;2022-12-18T05:12:14;66063.81;;;-10.35;100.00
36354;BME280;22383;51.114;13.666;2022-12-18T05:14:42;66060.25;;;-10.40;100.00
36354;BME280;22383;51.114;13.666;2022-12-18T05:17:09;66060.56;;;-10.42;100.00
36354;BME280;22383;51.114;13.666;2022-12-18T05:19:36;66061.69;;;-10.41;100.00
36354;BME280;22383;51.114;13.666;2022-12-18T05:22:04;66060.25;;;-10.40;100.00
36354;BME280;22383;51.114;13.666;2022-12-18T05:24:31;66062.81;;;-10.40;100.00
36354;BME280;22383;51.114;13.666;2022-12-18T05:26:58;66016.22;;;-10.41;100.00
36354;BME280;22383;51.114;13.666;2022-12-18T05:29:26;66019.00;;;-10.38;100.00
36354;BME280;22383;51.114;13.666;2022-12-18T05:31:53;66021.22;;;-10.36;100.00
36354;BME280;22383;51.114;13.666;2022-12-18T05:34:20;66022.00;;;-10.33;100.00
36354;BME280;22383;51.114;13.666;2022-12-18T05:36:48;66067.16;;;-10.32;100.00
36354;BME280;22383;51.114;13.666;2022-12-18T05:39:15;66067.81;;;-10.36;100.00
36354;BME280;22383;51.114;13.666;2022-12-18T05:41:42;66071.16;;;-10.33;100.00
36354;BME280;22383;51.114;13.666;2022-12-18T05:44:10;66072.81;;;-10.31;100.00
36354;BME280;22383;51.114;13.666;2022-12-18T05:46:37;66068.59;;;-10.33;100.00
36354;BME280;22383;51.114;13.666;2022-12-18T05:49:04;66072.81;;;-10.31;100.00
36354;BME280;22383;51.114;13.666;2022-12-18T05:51:32;66072.25;;;-10.32;100.00
36354;BME280;22383;51.114;13.666;2022-12-18T05:53:59;66029.88;;;-10.31;100.00
36354;BME280;22383;51.114;13.666;2022-12-18T05:56:26;66073.91;;;-10.30;100.00
36354;BME280;22383;51.114;13.666;2022-12-18T05:58:54;66073.38;;;-10.31;100.00
36354;BME280;22383;51.114;13.666;2022-12-18T06:01:25;66077.56;;;-10.29;100.00
36354;BME280;22383;51.114;13.666;2022-12-18T06:03:54;66030.09;;;-10.28;100.00
36354;BME280;22383;51.114;13.666;2022-12-18T06:06:24;66033.44;;;-10.25;100.00
36354;BME280;22383;51.114;13.666;2022-12-18T06:08:53;66077.47;;;-10.24;100.00
36354;BME280;22383;51.114;13.666;2022-12-18T06:11:23;66079.47;;;-10.25;100.00
36354;BME280;22383;51.114;13.666;2022-12-18T06:13:53;66075.00;;;-10.29;100.00
36354;BME280;22383;51.114;13.666;2022-12-18T06:16:26;66034.53;;;-10.24;100.00
36354;BME280;22383;51.114;13.666;2022-12-18T06:18:59;66029.22;;;-10.27;100.00
36354;BME280;22383;51.114;13.666;2022-12-18T06:21:32;66079.47;;;-10.25;100.00
36354;BME280;22383;51.114;13.666;2022-12-18T06:24:01;66077.81;;;-10.27;100.00
36354;BME280;22383;51.114;13.666;2022-12-18T06:26:29;66032.56;;;-10.23;100.00
36354;BME280;22383;51.114;13.666;2022-12-18T06:28:56;66035.13;;;-10.23;100.00
36354;BME280;22383;51.114;13.666;2022-12-18T06:31:25;66033.44;;;-10.25;100.00
36354;BME280;22383;51.114;13.666;2022-12-18T06:33:53;66034.53;;;-10.24;100.00
36354;BME280;22383;51.114;13.666;2022-12-18T06:36:20;66037.34;;;-10.21;100.00
36354;BME280;22383;51.114;13.666;2022-12-18T06:38:48;66077.81;;;-10.27;100.00
36354;BME280;22383;51.114;13.666;2022-12-18T06:41:18;66025.88;;;-10.30;100.00
36354;BME280;22383;51.114;13.666;2022-12-18T06:43:46;66025.13;;;-10.33;100.00
36354;BME280;22383;51.114;13.666;2022-12-18T06:46:14;66075.81;;;-10.26;100.00
36354;BME280;22383;51.114;13.666;2022-12-18T06:48:41;66068.59;;;-10.33;100.00
36354;BME280;22383;51.114;13.666;2022-12-18T06:51:09;66070.81;;;-10.31;100.00
36354;BME280;22383;51.114;13.666;2022-12-18T06:53:36;66072.81;;;-10.31;100.00
36354;BME280;22383;51.114;13.666;2022-12-18T06:56:07;66072.25;;;-10.32;100.00
36354;BME280;22383;51.114;13.666;2022-12-18T06:58:38;66074.47;;;-10.30;100.00
36354;BME280;22383;51.114;13.666;2022-12-18T07:01:07;66081.16;;;-10.23;100.00
36354;BME280;22383;51.114;13.666;2022-12-18T07:03:36;66045.69;;;-10.14;100.00
36354;BME280;22383;51.114;13.666;2022-12-18T07:06:04;66092.28;;;-10.13;100.00
36354;BME280;22383;51.114;13.666;2022-12-18T07:08:32;66050.13;;;-10.10;100.00
36354;BME280;22383;51.114;13.666;2022-12-18T07:11:03;66094.72;;;-10.09;100.00
36354;BME280;22383;51.114;13.666;2022-12-18T07:13:31;66099.75;;;-10.04;100.00
36354;BME280;22383;51.114;13.666;2022-12-18T07:16:09;66114.00;;;-9.93;100.00
36354;BME280;22383;51.114;13.666;2022-12-18T07:18:44;66119.22;;;-9.86;100.00
36354;BME280;22383;51.114;13.666;2022-12-18T07:21:12;66117.00;;;-9.88;100.00
36354;BME280;22383;51.114;13.666;2022-12-18T07:23:40;66080.50;;;-9.84;100.00
36354;BME280;22383;51.114;13.666;2022-12-18T07:26:11;66133.47;;;-9.75;100.00
36354;BME280;22383;51.114;13.666;2022-12-18T07:28:40;66129.25;;;-9.77;100.00
36354;BME280;22383;51.114;13.666;2022-12-18T07:31:10;66132.59;;;-9.74;100.00
36354;BME280;22383;51.114;13.666;2022-12-18T07:33:38;66130.91;;;-9.75;100.00
36354;BME280;22383;51.114;13.666;2022-12-18T07:36:07;66132.38;;;-9.76;100.00
36354;BME280;22383;51.114;13.666;2022-12-18T07:38:35;66128.16;;;-9.78;100.00
36354;BME280;22383;51.114;13.666;2022-12-18T07:41:13;66130.91;;;-9.75;100.00
36354;BME280;22383;51.114;13.666;2022-12-18T07:43:41;66129.59;;;-9.79;100.00
36354;BME280;22383;51.114;13.666;2022-12-18T07:46:10;66125.34;;;-9.80;100.00
36354;BME280;22383;51.114;13.666;2022-12-18T07:48:41;66132.59;;;-9.74;100.00
36354;BME280;22383;51.114;13.666;2022-12-18T07:51:10;66132.94;;;-9.76;100.00
36354;BME280;22383;51.114;13.666;2022-12-18T07:53:38;66130.03;;;-9.74;100.00
36354;BME280;22383;51.114;13.666;2022-12-18T07:56:10;66138.16;;;-9.68;100.00
36354;BME280;22383;51.114;13.666;2022-12-18T07:58:54;66142.94;;;-9.66;100.00
36354;BME280;22383;51.114;13.666;2022-12-18T08:01:22;66111.34;;;-9.53;100.00
36354;BME280;22383;51.114;13.666;2022-12-18T08:03:49;66163.00;;;-9.48;100.00
36354;BME280;22383;51.114;13.666;2022-12-18T08:06:19;66116.91;;;-9.48;100.00
36354;BME280;22383;51.114;13.666;2022-12-18T08:08:55;66176.16;;;-9.38;100.00
36354;BME280;22383;51.114;13.666;2022-12-18T08:11:24;66176.38;;;-9.36;100.00
36354;BME280;22383;51.114;13.666;2022-12-18T08:13:55;66186.41;;;-9.26;100.00
36354;BME280;22383;51.114;13.666;2022-12-18T08:16:22;66177.16;;;-9.33;100.00
36354;BME280;22383;51.114;13.666;2022-12-18T08:18:51;66166.91;;;-9.44;100.00
36354;BME280;22383;51.114;13.666;2022-12-18T08:21:24;66164.91;;;-9.44;100.00
36354;BME280;22383;51.114;13.666;2022-12-18T08:23:58;66163.78;;;-9.45;100.00
36354;BME280;22383;51.114;13.666;2022-12-18T08:26:28;66171.69;;;-9.42;100.00
36354;BME280;22383;51.114;13.666;2022-12-18T08:28:59;66168.47;;;-9.03;100.00
36354;BME280;22383;51.114;13.666;2022-12-18T08:31:30;66255.72;;;-8.60;100.00
36354;BME280;22383;51.114;13.666;2022-12-18T08:33:58;66233.28;;;-8.41;100.00
36354;BME280;22383;51.114;13.666;2022-12-18T08:36:31;66282.03;;;-8.41;100.00
36354;BME280;22383;51.114;13.666;2022-12-18T08:39:03;66299.53;;;-8.22;100.00
36354;BME280;22383;51.114;13.666;2022-12-18T08:41:40;66326.53;;;-7.95;100.00
36354;BME280;22383;51.114;13.666;2022-12-18T08:44:07;66361.13;;;-7.63;100.00
36354;BME280;22383;51.114;13.666;2022-12-18T08:46:55;66340.81;;;-7.84;100.00
36354;BME280;22383;51.114;13.666;2022-12-18T08:49:23;66258.38;;;-8.18;100.00
36354;BME280;22383;51.114;13.666;2022-12-18T08:51:54;66311.56;;;-8.13;100.00
36354;BME280;22383;51.114;13.666;2022-12-18T08:54:22;66307.91;;;-8.14;100.00
36354;BME280;22383;51.114;13.666;2022-12-18T08:56:49;66291.72;;;-8.29;100.00
36354;BME280;22383;51.114;13.666;2022-12-18T08:59:19;66291.41;;;-8.27;100.00
36354;BME280;22383;51.114;13.666;2022-12-18T09:01:54;66328.75;;;-7.93;100.00
36354;BME280;22383;51.114;13.666;2022-12-18T09:04:22;66337.69;;;-7.85;100.00
36354;BME280;22383;51.114;13.666;2022-12-18T09:06:52;66353.88;;;-7.70;100.00
36354;BME280;22383;51.114;13.666;2022-12-18T09:09:32;66365.91;;;-7.61;100.00
36354;BME280;22383;51.114;13.666;2022-12-18T09:11:59;66357.22;;;-7.67;100.00
36354;BME280;22383;51.114;13.666;2022-12-18T09:14:26;66372.06;;;-7.55;100.00
36354;BME280;22383;51.114;13.666;2022-12-18T09:16:54;66387.91;;;-7.38;100.00
36354;BME280;22383;51.114;13.666;2022-12-18T09:19:23;66421.75;;;-7.10;100.00
36354;BME280;22383;51.114;13.666;2022-12-18T09:21:51;66424.75;;;-7.05;100.00
36354;BME280;22383;51.114;13.666;2022-12-18T09:24:18;66409.47;;;-7.21;100.00
36354;BME280;22383;51.114;13.666;2022-12-18T09:26:53;66410.00;;;-7.20;100.00
36354;BME280;22383;51.114;13.666;2022-12-18T09:29:24;66444.84;;;-6.86;100.00
36354;BME280;22383;51.114;13.666;2022-12-18T09:31:51;66480.59;;;-6.53;100.00
36354;BME280;22383;51.114;13.666;2022-12-18T09:34:23;66491.53;;;-6.46;100.00
36354;BME280;22383;51.114;13.666;2022-12-18T09:36:51;66537.81;;;-5.98;100.00
36354;BME280;22383;51.114;13.666;2022-12-18T09:39:20;66564.59;;;-5.74;100.00
36354;BME280;22383;51.114;13.666;2022-12-18T09:41:56;66576.13;;;-5.65;100.00
36354;BME280;22383;51.114;13.666;2022-12-18T09:47:34;66577.03;;;-5.67;100.00
36354;BME280;22383;51.114;13.666;2022-12-18T09:50:06;66544.28;;;-5.95;100.00
36354;BME280;22383;51.114;13.666;2022-12-18T09:52:45;66524.19;;;-6.13;100.00
36354;BME280;22383;51.114;13.666;2022-12-18T09:55:41;66516.47;;;-6.25;100.00
36354;BME280;22383;51.114;13.666;2022-12-18T09:58:13;66501.94;;;-6.38;100.00
36354;BME280;22383;51.114;13.666;2022-12-18T10:00:42;66499.72;;;-6.40;100.00
36354;BME280;22383;51.114;13.666;2022-12-18T10:03:14;66502.72;;;-6.35;100.00
36354;BME280;22383;51.114;13.666;2022-12-18T10:06:11;66508.88;;;-6.30;100.00
36354;BME280;22383;51.114;13.666;2022-12-18T10:09:00;66516.69;;;-6.22;100.00
36354;BME280;22383;51.114;13.666;2022-12-18T10:16:56;66553.78;;;-5.86;100.00
36354;BME280;22383;51.114;13.666;2022-12-18T10:27:28;66601.28;;;-5.42;100.00
36354;BME280;22383;51.114;13.666;2022-12-18T10:29:59;66624.78;;;-5.21;100.00
36354;BME280;22383;51.114;13.666;2022-12-18T10:32:47;66641.34;;;-5.08;100.00
36354;BME280;22383;51.114;13.666;2022-12-18T10:35:27;66642.81;;;-5.09;100.00
36354;BME280;22383;51.114;13.666;2022-12-18T10:38:05;66656.47;;;-4.94;100.00
36354;BME280;22383;51.114;13.666;2022-12-18T10:43:20;66667.84;;;-4.81;100.00
36354;BME280;22383;51.114;13.666;2022-12-18T10:46:02;66700.31;;;-4.51;100.00
36354;BME280;22383;51.114;13.666;2022-12-18T10:48:36;66724.72;;;-4.31;100.00
36354;BME280;22383;51.114;13.666;2022-12-18T10:51:27;66757.75;;;-4.01;100.00
36354;BME280;22383;51.114;13.666;2022-12-18T10:54:01;66752.38;;;-4.04;100.00
36354;BME280;22383;51.114;13.666;2022-12-18T10:56:35;66742.28;;;-4.13;100.00
36354;BME280;22383;51.114;13.666;2022-12-18T10:59:05;66747.13;;;-4.11;100.00
36354;BME280;22383;51.114;13.666;2022-12-18T11:01:57;66737.25;;;-4.18;100.00
36354;BME280;22383;51.114;13.666;2022-12-18T11:04:30;66754.03;;;-4.02;100.00
36354;BME280;22383;51.114;13.666;2022-12-18T11:07:08;66731.66;;;-4.23;100.00
36354;BME280;22383;51.114;13.666;2022-12-18T11:09:37;66724.72;;;-4.31;100.00
36354;BME280;22383;51.114;13.666;2022-12-18T11:12:17;66734.22;;;-4.23;100.00
36354;BME280;22383;51.114;13.666;2022-12-18T11:14:52;66720.25;;;-4.35;100.00
36354;BME280;22383;51.114;13.666;2022-12-18T11:17:25;66714.09;;;-4.41;100.00
36354;BME280;22383;51.114;13.666;2022-12-18T11:20:04;66714.44;;;-4.43;100.00
36354;BME280;22383;51.114;13.666;2022-12-18T11:22:37;66727.53;;;-4.29;100.00
36354;BME280;22383;51.114;13.666;2022-12-18T11:28:00;66720.47;;;-4.33;100.00
36354;BME280;22383;51.114;13.666;2022-12-18T11:30:36;66729.19;;;-4.27;100.00
36354;BME280;22383;51.114;13.666;2022-12-18T11:33:13;66727.53;;;-4.29;100.00
36354;BME280;22383;51.114;13.666;2022-12-18T11:38:23;66723.25;;;-4.30;100.00
36354;BME280;22383;51.114;13.666;2022-12-18T11:40:58;66718.56;;;-4.37;100.00
36354;BME280;22383;51.114;13.666;2022-12-18T11:43:29;66720.25;;;-4.35;100.00
36354;BME280;22383;51.114;13.666;2022-12-18T11:46:06;66717.09;;;-4.36;100.00
36354;BME280;22383;51.114;13.666;2022-12-18T11:48:46;66705.91;;;-4.46;100.00
36354;BME280;22383;51.114;13.666;2022-12-18T11:51:38;66715.97;;;-4.37;100.00
36354;BME280;22383;51.114;13.666;2022-12-18T11:54:15;66733.69;;;-4.23;100.00
36354;BME280;22383;51.114;13.666;2022-12-18T11:56:48;66738.50;;;-4.21;100.00
36354;BME280;22383;51.114;13.666;2022-12-18T11:59:33;66737.25;;;-4.18;100.00
36354;BME280;22383;51.114;13.666;2022-12-18T12:03:05;66747.66;;;-4.10;100.00
36354;BME280;22383;51.114;13.666;2022-12-18T12:10:49;66720.47;;;-4.33;100.00
36354;BME280;22383;51.114;13.666;2022-12-18T12:25:05;66725.50;;;-4.28;100.00
36354;BME280;22383;51.114;13.666;2022-12-18T12:39:27;66712.63;;;-4.40;100.00
36354;BME280;22383;51.114;13.666;2022-12-18T12:41:55;66712.63;;;-4.40;100.00
36354;BME280;22383;51.114;13.666;2022-12-18T12:44:51;66703.09;;;-4.49;100.00
36354;BME280;22383;51.114;13.666;2022-12-18T12:47:28;66710.16;;;-4.45;100.00
36354;BME280;22383;51.114;13.666;2022-12-18T12:49:59;66685.31;;;-4.70;100.00
36354;BME280;22383;51.114;13.666;2022-12-18T12:54:58;66665.81;;;-4.81;100.00
36354;BME280;22383;51.114;13.666;2022-12-18T12:57:34;66668.41;;;-4.81;100.00
36354;BME280;22383;51.114;13.666;2022-12-18T13:00:17;66664.06;;;-4.89;100.00
36354;BME280;22383;51.114;13.666;2022-12-18T13:05:30;66654.97;;;-4.93;100.00
36354;BME280;22383;51.114;13.666;2022-12-18T13:08:05;66659.47;;;-4.89;100.00
36354;BME280;22383;51.114;13.666;2022-12-18T13:10:38;66648.63;;;-5.01;100.00
36354;BME280;22383;51.114;13.666;2022-12-18T13:13:08;66639.31;;;-5.07;100.00
36354;BME280;22383;51.114;13.666;2022-12-18T13:15:44;66631.50;;;-5.15;100.00
36354;BME280;22383;51.114;13.666;2022-12-18T13:18:15;66627.03;;;-5.19;100.00
36354;BME280;22383;51.114;13.666;2022-12-18T13:20:49;66616.41;;;-5.28;100.00
36354;BME280;22383;51.114;13.666;2022-12-18T13:28:51;66605.22;;;-5.39;100.00
36354;BME280;22383;51.114;13.666;2022-12-18T13:34:29;66598.84;;;-5.47;100.00
36354;BME280;22383;51.114;13.666;2022-12-18T13:37:53;66599.97;;;-5.46;100.00
36354;BME280;22383;51.114;13.666;2022-12-18T13:43:40;66595.94;;;-5.45;100.00
36354;BME280;22383;51.114;13.666;2022-12-18T13:46:30;66602.41;;;-5.41;100.00
36354;BME280;22383;51.114;13.666;2022-12-18T13:51:49;66601.09;;;-5.45;100.00
36354;BME280;22383;51.114;13.666;2022-12-18T13:56:48;66601.84;;;-5.42;100.00
36354;BME280;22383;51.114;13.666;2022-12-18T14:01:55;66591.22;;;-5.52;100.00
36354;BME280;22383;51.114;13.666;2022-12-18T14:04:29;66593.81;;;-5.52;100.00
36354;BME280;22383;51.114;13.666;2022-12-18T14:07:28;66587.66;;;-5.57;100.00
36354;BME280;22383;51.114;13.666;2022-12-18T14:10:13;66580.94;;;-5.63;100.00
36354;BME280;22383;51.114;13.666;2022-12-18T14:13:06;66573.91;;;-5.67;100.00
36354;BME280;22383;51.114;13.666;2022-12-18T14:20:39;66562.16;;;-5.78;100.00
36354;BME280;22383;51.114;13.666;2022-12-18T14:23:34;66556.91;;;-5.85;100.00
36354;BME280;22383;51.114;13.666;2022-12-18T14:26:03;66550.63;;;-5.86;100.00
36354;BME280;22383;51.114;13.666;2022-12-18T14:28:46;66548.53;;;-5.93;100.00
36354;BME280;22383;51.114;13.666;2022-12-18T14:31:24;66501.97;;;-5.96;100.00
36354;BME280;22383;51.114;13.666;2022-12-18T14:33:55;66549.84;;;-5.90;100.00
36354;BME280;22383;51.114;13.666;2022-12-18T14:36:28;66539.28;;;-5.99;100.00
36354;BME280;22383;51.114;13.666;2022-12-18T14:38:59;66540.16;;;-6.01;100.00
36354;BME280;22383;51.114;13.666;2022-12-18T14:41:26;66537.16;;;-6.06;100.00